sensor_id;sensor_type;location;lat;lon;timestamp;pressure;altitude;pressure_sealevel;temperature;humidity
54876;BME280;40764;48.472;8.166;2023-05-24T00:05:17;98460.94;;;14.50;79.41
54876;BME280;40764;48.472;8.166;2023-05-24T00:11:21;98457.84;;;14.30;80.87
54876;BME280;40764;48.472;8.166;2023-05-24T00:17:21;98453.97;;;14.31;81.69
54876;BME280;40764;48.472;8.166;2023-05-24T00:23:21;98446.22;;;14.33;80.51
54876;BME280;40764;48.472;8.166;2023-05-24T00:29:22;98450.88;;;14.46;79.02
54876;BME280;40764;48.472;8.166;2023-05-24T00:35:22;98450.78;;;14.37;79.82
54876;BME280;40764;48.472;8.166;2023-05-24T00:41:24;98439.88;;;14.23;79.61
54876;BME280;40764;48.472;8.166;2023-05-24T00:47:26;98443.53;;;14.41;78.90
54876;BME280;40764;48.472;8.166;2023-05-24T00:53:26;98444.16;;;14.38;79.25
54876;BME280;40764;48.472;8.166;2023-05-24T00:59:30;98444.59;;;14.32;79.94
54876;BME280;40764;48.472;8.166;2023-05-24T01:05:31;98444.66;;;14.40;81.14
54876;BME280;40764;48.472;8.166;2023-05-24T01:18:15;98439.69;;;13.98;85.50
54876;BME280;40764;48.472;8.166;2023-05-24T01:24:43;98439.41;;;14.08;84.26
54876;BME280;40764;48.472;8.166;2023-05-24T01:30:54;98440.44;;;13.89;84.63
54876;BME280;40764;48.472;8.166;2023-05-24T01:36:55;98425.34;;;13.87;86.03
54876;BME280;40764;48.472;8.166;2023-05-24T01:43:27;98424.34;;;13.83;86.94
54876;BME280;40764;48.472;8.166;2023-05-24T01:49:34;98420.72;;;13.74;86.52
54876;BME280;40764;48.472;8.166;2023-05-24T01:55:37;98432.91;;;13.81;85.36
54876;BME280;40764;48.472;8.166;2023-05-24T02:01:38;98413.25;;;13.88;84.67
54876;BME280;40764;48.472;8.166;2023-05-24T02:07:39;98416.16;;;13.69;86.56
54876;BME280;40764;48.472;8.166;2023-05-24T02:13:40;98414.50;;;13.82;85.47
54876;BME280;40764;48.472;8.166;2023-05-24T02:19:41;98412.69;;;14.00;85.50
54876;BME280;40764;48.472;8.166;2023-05-24T02:25:41;98418.38;;;14.03;85.94
54876;BME280;40764;48.472;8.166;2023-05-24T02:31:42;98418.13;;;13.91;87.93
54876;BME280;40764;48.472;8.166;2023-05-24T02:37:42;98423.19;;;13.98;87.58
54876;BME280;40764;48.472;8.166;2023-05-24T02:43:46;98415.31;;;13.82;88.14
54876;BME280;40764;48.472;8.166;2023-05-24T02:49:46;98413.44;;;13.55;90.96
54876;BME280;40764;48.472;8.166;2023-05-24T02:55:47;98408.38;;;13.62;90.07
54876;BME280;40764;48.472;8.166;2023-05-24T03:01:47;98415.56;;;13.58;90.54
54876;BME280;40764;48.472;8.166;2023-05-24T03:07:48;98418.06;;;13.46;91.01
54876;BME280;40764;48.472;8.166;2023-05-24T03:13:48;98428.00;;;13.56;92.16
54876;BME280;40764;48.472;8.166;2023-05-24T03:19:48;98431.91;;;13.27;92.43
54876;BME280;40764;48.472;8.166;2023-05-24T03:25:49;98428.97;;;13.24;92.39
54876;BME280;40764;48.472;8.166;2023-05-24T03:31:49;98429.59;;;13.35;91.52
54876;BME280;40764;48.472;8.166;2023-05-24T03:37:50;98431.47;;;13.48;89.72
54876;BME280;40764;48.472;8.166;2023-05-24T03:43:51;98438.72;;;13.16;89.25
54876;BME280;40764;48.472;8.166;2023-05-24T03:49:51;98439.75;;;13.07;90.70
54876;BME280;40764;48.472;8.166;2023-05-24T03:55:52;98433.47;;;13.20;89.21
54876;BME280;40764;48.472;8.166;2023-05-24T04:01:52;98426.34;;;13.05;90.19
54876;BME280;40764;48.472;8.166;2023-05-24T04:07:56;98425.09;;;12.97;92.13
54876;BME280;40764;48.472;8.166;2023-05-24T04:13:57;98419.63;;;12.84;93.06
54876;BME280;40764;48.472;8.166;2023-05-24T04:20:00;98425.31;;;12.87;93.60
54876;BME280;40764;48.472;8.166;2023-05-24T04:26:01;98415.66;;;12.76;91.83
54876;BME280;40764;48.472;8.166;2023-05-24T04:32:01;98418.63;;;12.80;87.68
54876;BME280;40764;48.472;8.166;2023-05-24T04:38:01;98417.28;;;12.77;81.83
54876;BME280;40764;48.472;8.166;2023-05-24T04:44:02;98422.59;;;13.01;78.27
54876;BME280;40764;48.472;8.166;2023-05-24T04:50:03;98429.41;;;13.17;76.44
54876;BME280;40764;48.472;8.166;2023-05-24T04:56:03;98436.50;;;13.05;77.53
54876;BME280;40764;48.472;8.166;2023-05-24T05:02:04;98444.63;;;13.23;77.21
54876;BME280;40764;48.472;8.166;2023-05-24T05:08:05;98444.22;;;13.44;76.22
54876;BME280;40764;48.472;8.166;2023-05-24T05:14:05;98445.53;;;13.46;74.80
54876;BME280;40764;48.472;8.166;2023-05-24T05:20:08;98450.41;;;13.49;72.94
54876;BME280;40764;48.472;8.166;2023-05-24T05:26:09;98442.75;;;13.60;74.09
54876;BME280;40764;48.472;8.166;2023-05-24T05:32:09;98448.69;;;13.76;71.63
54876;BME280;40764;48.472;8.166;2023-05-24T05:38:09;98446.66;;;13.81;69.54
54876;BME280;40764;48.472;8.166;2023-05-24T05:44:11;98447.88;;;13.89;69.51
54876;BME280;40764;48.472;8.166;2023-05-24T05:50:11;98445.09;;;14.11;67.63
54876;BME280;40764;48.472;8.166;2023-05-24T05:56:12;98449.59;;;14.07;70.18
54876;BME280;40764;48.472;8.166;2023-05-24T06:02:12;98457.84;;;14.30;66.81
54876;BME280;40764;48.472;8.166;2023-05-24T06:08:12;98451.06;;;14.49;66.57
54876;BME280;40764;48.472;8.166;2023-05-24T06:14:14;98448.66;;;14.56;66.93
54876;BME280;40764;48.472;8.166;2023-05-24T06:20:18;98452.75;;;14.68;64.48
54876;BME280;40764;48.472;8.166;2023-05-24T06:26:19;98456.38;;;14.46;66.00
54876;BME280;40764;48.472;8.166;2023-05-24T06:32:20;98455.84;;;14.66;61.99
54876;BME280;40764;48.472;8.166;2023-05-24T06:38:21;98465.53;;;14.95;63.75
54876;BME280;40764;48.472;8.166;2023-05-24T06:44:21;98475.16;;;14.75;61.69
54876;BME280;40764;48.472;8.166;2023-05-24T06:50:22;98476.88;;;15.02;63.79
54876;BME280;40764;48.472;8.166;2023-05-24T06:56:23;98480.84;;;15.18;64.60
54876;BME280;40764;48.472;8.166;2023-05-24T07:02:23;98489.44;;;15.25;60.59
54876;BME280;40764;48.472;8.166;2023-05-24T07:08:26;98484.69;;;15.08;63.95
54876;BME280;40764;48.472;8.166;2023-05-24T07:14:27;98487.81;;;15.24;62.28
54876;BME280;40764;48.472;8.166;2023-05-24T07:20:27;98503.28;;;15.42;61.20
54876;BME280;40764;48.472;8.166;2023-05-24T07:26:27;98515.06;;;15.74;61.40
54876;BME280;40764;48.472;8.166;2023-05-24T07:32:28;98510.38;;;15.83;62.00
54876;BME280;40764;48.472;8.166;2023-05-24T07:38:28;98519.59;;;15.87;61.98
54876;BME280;40764;48.472;8.166;2023-05-24T07:44:30;98511.94;;;15.58;61.94
54876;BME280;40764;48.472;8.166;2023-05-24T07:50:30;98521.06;;;15.85;62.18
54876;BME280;40764;48.472;8.166;2023-05-24T07:56:31;98525.88;;;15.22;63.00
54876;BME280;40764;48.472;8.166;2023-05-24T08:02:31;98520.38;;;15.22;63.75
54876;BME280;40764;48.472;8.166;2023-05-24T08:08:32;98534.16;;;15.22;64.62
54876;BME280;40764;48.472;8.166;2023-05-24T08:14:33;98530.06;;;14.80;67.04
54876;BME280;40764;48.472;8.166;2023-05-24T08:20:35;98537.06;;;15.26;66.36
54876;BME280;40764;48.472;8.166;2023-05-24T08:26:36;98537.59;;;14.74;66.76
54876;BME280;40764;48.472;8.166;2023-05-24T08:32:37;98547.41;;;14.89;66.04
54876;BME280;40764;48.472;8.166;2023-05-24T08:38:39;98541.06;;;15.11;65.49
54876;BME280;40764;48.472;8.166;2023-05-24T08:45:13;98551.44;;;15.14;64.98
54876;BME280;40764;48.472;8.166;2023-05-24T08:51:14;98541.53;;;15.44;63.91
54876;BME280;40764;48.472;8.166;2023-05-24T08:57:15;98554.19;;;15.93;62.01
54876;BME280;40764;48.472;8.166;2023-05-24T09:03:16;98555.66;;;15.99;61.54
54876;BME280;40764;48.472;8.166;2023-05-24T09:09:17;98558.41;;;15.91;61.39
54876;BME280;40764;48.472;8.166;2023-05-24T09:15:20;98555.81;;;16.03;60.56
54876;BME280;40764;48.472;8.166;2023-05-24T09:21:20;98548.19;;;16.17;59.39
54876;BME280;40764;48.472;8.166;2023-05-24T09:27:22;98554.34;;;16.05;60.17
54876;BME280;40764;48.472;8.166;2023-05-24T09:33:22;98556.47;;;16.17;60.34
54876;BME280;40764;48.472;8.166;2023-05-24T09:39:27;98548.66;;;16.02;60.44
54876;BME280;40764;48.472;8.166;2023-05-24T09:45:27;98551.56;;;15.88;60.49
54876;BME280;40764;48.472;8.166;2023-05-24T09:51:28;98556.25;;;15.79;61.10
54876;BME280;40764;48.472;8.166;2023-05-24T09:57:32;98552.88;;;15.99;60.11
54876;BME280;40764;48.472;8.166;2023-05-24T10:03:34;98550.00;;;16.30;59.16
54876;BME280;40764;48.472;8.166;2023-05-24T10:09:36;98552.44;;;16.49;58.69
54876;BME280;40764;48.472;8.166;2023-05-24T10:15:37;98553.72;;;16.60;57.57
54876;BME280;40764;48.472;8.166;2023-05-24T10:21:40;98547.06;;;16.53;57.09
54876;BME280;40764;48.472;8.166;2023-05-24T10:27:52;98547.72;;;16.50;58.14
54876;BME280;40764;48.472;8.166;2023-05-24T10:33:55;98551.13;;;16.55;57.86
54876;BME280;40764;48.472;8.166;2023-05-24T10:39:58;98543.50;;;16.78;57.33
54876;BME280;40764;48.472;8.166;2023-05-24T10:46:01;98542.59;;;17.50;55.74
54876;BME280;40764;48.472;8.166;2023-05-24T10:52:09;98534.34;;;16.95;55.68
54876;BME280;40764;48.472;8.166;2023-05-24T10:58:10;98528.56;;;17.26;55.61
54876;BME280;40764;48.472;8.166;2023-05-24T11:04:14;98529.97;;;17.41;55.26
54876;BME280;40764;48.472;8.166;2023-05-24T11:10:15;98537.00;;;17.29;55.50
54876;BME280;40764;48.472;8.166;2023-05-24T11:16:35;98540.66;;;17.04;56.65
54876;BME280;40764;48.472;8.166;2023-05-24T11:22:36;98536.34;;;16.51;56.70
54876;BME280;40764;48.472;8.166;2023-05-24T11:28:39;98531.31;;;16.53;57.22
54876;BME280;40764;48.472;8.166;2023-05-24T11:34:40;98523.03;;;16.62;57.26
54876;BME280;40764;48.472;8.166;2023-05-24T11:40:45;98523.38;;;16.69;56.57
54876;BME280;40764;48.472;8.166;2023-05-24T11:46:49;98517.03;;;16.77;56.48
54876;BME280;40764;48.472;8.166;2023-05-24T11:53:01;98500.34;;;17.12;55.45
54876;BME280;40764;48.472;8.166;2023-05-24T11:59:08;98484.63;;;17.92;54.20
54876;BME280;40764;48.472;8.166;2023-05-24T12:05:09;98479.66;;;18.06;51.34
54876;BME280;40764;48.472;8.166;2023-05-24T12:11:11;98469.09;;;18.62;44.33
54876;BME280;40764;48.472;8.166;2023-05-24T12:17:14;98471.50;;;18.64;41.87
54876;BME280;40764;48.472;8.166;2023-05-24T12:23:22;98462.75;;;19.56;41.99
54876;BME280;40764;48.472;8.166;2023-05-24T12:29:23;98464.22;;;19.65;39.35
54876;BME280;40764;48.472;8.166;2023-05-24T12:35:23;98456.38;;;19.31;40.33
54876;BME280;40764;48.472;8.166;2023-05-24T12:41:24;98446.38;;;20.31;40.34
54876;BME280;40764;48.472;8.166;2023-05-24T12:47:24;98444.78;;;20.58;39.29
54876;BME280;40764;48.472;8.166;2023-05-24T12:53:25;98460.97;;;19.02;42.03
54876;BME280;40764;48.472;8.166;2023-05-24T12:59:26;98455.56;;;19.18;41.67
54876;BME280;40764;48.472;8.166;2023-05-24T13:05:27;98450.59;;;18.99;40.97
54876;BME280;40764;48.472;8.166;2023-05-24T13:11:28;98453.44;;;18.78;41.58
54876;BME280;40764;48.472;8.166;2023-05-24T13:17:30;98430.41;;;19.23;40.83
54876;BME280;40764;48.472;8.166;2023-05-24T13:23:32;98432.81;;;19.73;39.28
54876;BME280;40764;48.472;8.166;2023-05-24T13:29:32;98423.00;;;19.52;38.98
54876;BME280;40764;48.472;8.166;2023-05-24T13:35:32;98413.41;;;19.73;39.81
54876;BME280;40764;48.472;8.166;2023-05-24T13:41:34;98413.50;;;19.77;38.71
54876;BME280;40764;48.472;8.166;2023-05-24T13:47:34;98403.97;;;20.18;36.86
54876;BME280;40764;48.472;8.166;2023-05-24T13:53:38;98405.03;;;20.14;37.36
54876;BME280;40764;48.472;8.166;2023-05-24T13:59:38;98402.28;;;20.41;36.55
54876;BME280;40764;48.472;8.166;2023-05-24T14:05:39;98397.94;;;20.28;36.72
54876;BME280;40764;48.472;8.166;2023-05-24T14:11:40;98402.38;;;20.45;36.21
54876;BME280;40764;48.472;8.166;2023-05-24T14:17:40;98395.88;;;20.53;36.31
54876;BME280;40764;48.472;8.166;2023-05-24T14:23:40;98407.84;;;20.41;35.93
54876;BME280;40764;48.472;8.166;2023-05-24T14:29:41;98378.38;;;20.53;35.51
54876;BME280;40764;48.472;8.166;2023-05-24T14:35:41;98375.66;;;20.84;36.06
54876;BME280;40764;48.472;8.166;2023-05-24T14:41:42;98383.25;;;21.03;35.63
54876;BME280;40764;48.472;8.166;2023-05-24T14:47:42;98384.66;;;20.81;36.15
54876;BME280;40764;48.472;8.166;2023-05-24T14:53:43;98389.19;;;20.86;35.82
54876;BME280;40764;48.472;8.166;2023-05-24T14:59:44;98381.63;;;21.18;35.42
54876;BME280;40764;48.472;8.166;2023-05-24T15:05:44;98375.84;;;21.77;34.52
54876;BME280;40764;48.472;8.166;2023-05-24T15:11:45;98370.63;;;21.95;34.49
54876;BME280;40764;48.472;8.166;2023-05-24T15:17:45;98382.44;;;21.69;35.22
54876;BME280;40764;48.472;8.166;2023-05-24T15:23:46;98373.13;;;21.81;34.17
54876;BME280;40764;48.472;8.166;2023-05-24T15:29:50;98367.94;;;22.18;33.68
54876;BME280;40764;48.472;8.166;2023-05-24T15:35:53;98369.28;;;21.50;34.72
54876;BME280;40764;48.472;8.166;2023-05-24T15:41:54;98364.47;;;20.37;36.81
54876;BME280;40764;48.472;8.166;2023-05-24T15:47:54;98358.00;;;20.33;36.66
54876;BME280;40764;48.472;8.166;2023-05-24T15:53:55;98373.09;;;19.52;38.22
54876;BME280;40764;48.472;8.166;2023-05-24T15:59:57;98363.97;;;19.91;37.32
54876;BME280;40764;48.472;8.166;2023-05-24T16:05:57;98365.75;;;19.19;38.28
54876;BME280;40764;48.472;8.166;2023-05-24T16:11:58;98364.00;;;18.78;39.06
54876;BME280;40764;48.472;8.166;2023-05-24T16:17:58;98365.59;;;18.54;42.15
54876;BME280;40764;48.472;8.166;2023-05-24T16:23:58;98377.84;;;18.66;40.28
54876;BME280;40764;48.472;8.166;2023-05-24T16:29:59;98376.53;;;18.18;43.06
54876;BME280;40764;48.472;8.166;2023-05-24T16:36:06;98381.19;;;18.26;42.52
54876;BME280;40764;48.472;8.166;2023-05-24T16:42:07;98384.69;;;17.81;44.37
54876;BME280;40764;48.472;8.166;2023-05-24T16:48:07;98383.84;;;17.69;41.96
54876;BME280;40764;48.472;8.166;2023-05-24T16:54:08;98381.97;;;17.52;43.20
54876;BME280;40764;48.472;8.166;2023-05-24T17:00:09;98387.44;;;17.60;43.11
54876;BME280;40764;48.472;8.166;2023-05-24T17:06:11;98389.47;;;17.51;41.84
54876;BME280;40764;48.472;8.166;2023-05-24T17:12:11;98390.53;;;17.59;41.40
54876;BME280;40764;48.472;8.166;2023-05-24T17:18:12;98398.81;;;17.38;41.53
54876;BME280;40764;48.472;8.166;2023-05-24T17:24:12;98401.19;;;17.48;41.57
54876;BME280;40764;48.472;8.166;2023-05-24T17:30:14;98408.69;;;17.18;44.62
54876;BME280;40764;48.472;8.166;2023-05-24T17:36:15;98404.06;;;17.01;48.08
54876;BME280;40764;48.472;8.166;2023-05-24T17:42:15;98407.78;;;16.67;50.08
54876;BME280;40764;48.472;8.166;2023-05-24T17:48:19;98406.78;;;16.72;46.01
54876;BME280;40764;48.472;8.166;2023-05-24T17:54:19;98407.81;;;16.41;48.80
54876;BME280;40764;48.472;8.166;2023-05-24T18:00:21;98418.69;;;16.38;48.11
54876;BME280;40764;48.472;8.166;2023-05-24T18:06:22;98422.31;;;16.13;51.51
54876;BME280;40764;48.472;8.166;2023-05-24T18:12:22;98428.16;;;16.02;51.41
54876;BME280;40764;48.472;8.166;2023-05-24T18:18:24;98439.84;;;15.91;50.66
54876;BME280;40764;48.472;8.166;2023-05-24T18:24:25;98452.16;;;15.85;50.63
54876;BME280;40764;48.472;8.166;2023-05-24T18:30:25;98462.34;;;15.58;45.24
54876;BME280;40764;48.472;8.166;2023-05-24T18:36:25;98473.88;;;15.69;47.54
54876;BME280;40764;48.472;8.166;2023-05-24T18:42:30;98475.28;;;15.58;44.61
54876;BME280;40764;48.472;8.166;2023-05-24T18:48:30;98476.56;;;15.52;44.56
54876;BME280;40764;48.472;8.166;2023-05-24T18:54:32;98482.84;;;15.35;46.52
54876;BME280;40764;48.472;8.166;2023-05-24T19:00:32;98492.75;;;15.36;47.87
54876;BME280;40764;48.472;8.166;2023-05-24T19:06:33;98490.25;;;15.26;48.11
54876;BME280;40764;48.472;8.166;2023-05-24T19:12:36;98498.47;;;15.08;48.87
54876;BME280;40764;48.472;8.166;2023-05-24T19:18:36;98498.03;;;15.24;46.80
54876;BME280;40764;48.472;8.166;2023-05-24T19:24:38;98499.47;;;15.21;45.74
54876;BME280;40764;48.472;8.166;2023-05-24T19:30:44;98510.28;;;15.09;47.99
54876;BME280;40764;48.472;8.166;2023-05-24T19:36:45;98516.97;;;14.85;48.06
54876;BME280;40764;48.472;8.166;2023-05-24T19:42:45;98510.16;;;14.83;47.79
54876;BME280;40764;48.472;8.166;2023-05-24T19:48:55;98519.94;;;14.67;50.07
54876;BME280;40764;48.472;8.166;2023-05-24T19:54:55;98527.06;;;14.45;49.75
54876;BME280;40764;48.472;8.166;2023-05-24T20:00:56;98532.78;;;14.49;49.13
54876;BME280;40764;48.472;8.166;2023-05-24T20:06:56;98533.09;;;14.34;50.80
54876;BME280;40764;48.472;8.166;2023-05-24T20:12:57;98527.41;;;14.30;50.24
54876;BME280;40764;48.472;8.166;2023-05-24T20:18:57;98528.66;;;14.24;49.76
54876;BME280;40764;48.472;8.166;2023-05-24T20:25:00;98520.31;;;14.15;49.06
54876;BME280;40764;48.472;8.166;2023-05-24T20:31:00;98519.75;;;14.05;49.39
54876;BME280;40764;48.472;8.166;2023-05-24T20:37:01;98511.00;;;14.03;50.94
54876;BME280;40764;48.472;8.166;2023-05-24T20:43:04;98520.19;;;13.98;51.30
54876;BME280;40764;48.472;8.166;2023-05-24T20:49:05;98510.38;;;13.70;50.89
54876;BME280;40764;48.472;8.166;2023-05-24T20:55:11;98509.50;;;13.60;52.98
54876;BME280;40764;48.472;8.166;2023-05-24T21:01:12;98518.25;;;13.35;53.33
54876;BME280;40764;48.472;8.166;2023-05-24T21:07:22;98516.78;;;13.10;54.75
54876;BME280;40764;48.472;8.166;2023-05-24T21:13:23;98510.97;;;12.84;56.02
54876;BME280;40764;48.472;8.166;2023-05-24T21:19:26;98523.63;;;12.34;58.78
54876;BME280;40764;48.472;8.166;2023-05-24T21:25:28;98530.88;;;12.44;58.31
54876;BME280;40764;48.472;8.166;2023-05-24T21:31:28;98529.34;;;12.00;60.49
54876;BME280;40764;48.472;8.166;2023-05-24T21:37:29;98524.81;;;12.09;60.94
54876;BME280;40764;48.472;8.166;2023-05-24T21:43:42;98515.28;;;12.58;57.26
54876;BME280;40764;48.472;8.166;2023-05-24T21:49:42;98530.66;;;12.40;59.52
54876;BME280;40764;48.472;8.166;2023-05-24T21:55:43;98531.69;;;12.44;58.66
54876;BME280;40764;48.472;8.166;2023-05-24T22:01:43;98529.72;;;12.12;61.23
54876;BME280;40764;48.472;8.166;2023-05-24T22:07:44;98538.56;;;12.41;57.63
54876;BME280;40764;48.472;8.166;2023-05-24T22:13:46;98538.84;;;12.59;57.05
54876;BME280;40764;48.472;8.166;2023-05-24T22:19:47;98530.31;;;12.60;54.97
54876;BME280;40764;48.472;8.166;2023-05-24T22:25:48;98525.13;;;12.59;56.41
54876;BME280;40764;48.472;8.166;2023-05-24T22:31:49;98522.59;;;12.62;56.44
54876;BME280;40764;48.472;8.166;2023-05-24T22:37:49;98528.59;;;12.64;55.91
54876;BME280;40764;48.472;8.166;2023-05-24T22:43:50;98530.19;;;12.52;56.64
54876;BME280;40764;48.472;8.166;2023-05-24T22:49:55;98543.41;;;12.31;55.13
54876;BME280;40764;48.472;8.166;2023-05-24T22:56:03;98548.31;;;11.96;57.54
54876;BME280;40764;48.472;8.166;2023-05-24T23:02:04;98547.03;;;12.26;54.71
54876;BME280;40764;48.472;8.166;2023-05-24T23:08:04;98534.41;;;11.93;57.19
54876;BME280;40764;48.472;8.166;2023-05-24T23:14:04;98527.88;;;11.89;55.89
54876;BME280;40764;48.472;8.166;2023-05-24T23:20:08;98519.97;;;11.87;55.66
54876;BME280;40764;48.472;8.166;2023-05-24T23:26:14;98520.88;;;11.77;55.95
54876;BME280;40764;48.472;8.166;2023-05-24T23:32:14;98520.84;;;11.40;58.67
54876;BME280;40764;48.472;8.166;2023-05-24T23:38:14;98511.69;;;11.26;59.80
54876;BME280;40764;48.472;8.166;2023-05-24T23:44:20;98510.47;;;11.37;58.89
54876;BME280;40764;48.472;8.166;2023-05-24T23:50:22;98510.47;;;11.13;59.75
54876;BME280;40764;48.472;8.166;2023-05-24T23:56:23;98506.88;;;10.65;62.89
